createdAt,value
2019-01-04T00:02:35.498Z,1.90
2019-01-04T00:05:38.903Z,1.83
2019-01-04T00:08:41.992Z,1.87
2019-01-04T00:11:45.183Z,1.40
2019-01-04T00:14:48.583Z,1.80
2019-01-04T00:17:51.783Z,1.73
2019-01-04T00:20:55.076Z,2.13
2019-01-04T00:23:58.177Z,1.50
2019-01-04T00:27:01.262Z,1.70
2019-01-04T00:30:05.691Z,1.77
2019-01-04T00:33:09.807Z,2.00
2019-01-04T00:36:13.103Z,1.77
2019-01-04T00:39:16.197Z,1.47
2019-01-04T00:42:20.207Z,2.00
2019-01-04T00:45:23.411Z,1.93
2019-01-04T00:48:26.599Z,1.30
2019-01-04T00:51:29.707Z,1.70
2019-01-04T00:54:32.783Z,1.50
2019-01-04T00:58:12.468Z,2.00
2019-01-04T01:01:49.727Z,2.10
2019-01-04T01:05:17.983Z,2.30
2019-01-04T01:09:30.218Z,1.90
2019-01-04T01:13:19.878Z,2.00
2019-01-04T01:16:52.961Z,2.57
2019-01-04T01:20:26.412Z,2.00
2019-01-04T01:24:06.194Z,2.03
2019-01-04T01:27:46.215Z,2.40
2019-01-04T01:31:41.686Z,2.03
2019-01-04T01:35:44.472Z,2.33
2019-01-04T01:39:37.704Z,2.10
2019-01-04T01:43:07.351Z,2.37
2019-01-04T01:46:52.702Z,2.43
2019-01-04T01:50:45.599Z,1.90
2019-01-04T01:53:48.787Z,2.40
2019-01-04T01:56:51.952Z,2.40
2019-01-04T01:59:55.081Z,1.97
2019-01-04T02:02:58.143Z,2.33
2019-01-04T02:06:01.466Z,2.17
2019-01-04T02:09:07.517Z,2.33
2019-01-04T02:12:10.798Z,2.27
2019-01-04T02:15:14.139Z,2.43
2019-01-04T02:18:17.495Z,2.30
2019-01-04T02:21:20.827Z,2.23
2019-01-04T02:24:23.987Z,1.90
2019-01-04T02:27:27.211Z,2.33
2019-01-04T02:30:30.280Z,2.20
2019-01-04T02:33:33.499Z,2.53
2019-01-04T02:36:36.604Z,2.57
2019-01-04T02:39:39.747Z,2.53
2019-01-04T02:42:42.943Z,2.50
2019-01-04T02:45:46.148Z,2.50
2019-01-04T02:48:49.280Z,2.77
2019-01-04T02:51:52.331Z,3.20
2019-01-04T02:54:55.555Z,2.80
2019-01-04T02:57:58.714Z,2.83
2019-01-04T03:01:01.918Z,2.77
2019-01-04T03:04:05.016Z,2.83
2019-01-04T03:07:08.104Z,3.27
2019-01-04T03:10:11.647Z,3.87
2019-01-04T03:13:14.796Z,4.20
2019-01-04T03:16:17.921Z,3.77
2019-01-04T03:19:21.083Z,4.30
2019-01-04T03:22:24.180Z,4.67
2019-01-04T03:25:27.270Z,5.10
2019-01-04T03:28:30.363Z,5.30
2019-01-04T03:31:33.465Z,6.27
2019-01-04T03:34:36.553Z,5.57
2019-01-04T03:37:41.227Z,6.23
2019-01-04T03:40:44.392Z,6.47
2019-01-04T03:43:47.464Z,7.33
2019-01-04T03:46:50.555Z,6.33
2019-01-04T03:49:53.652Z,6.50
2019-01-04T03:52:56.850Z,7.67
2019-01-04T03:56:00.057Z,7.50
2019-01-04T03:59:03.235Z,7.73
2019-01-04T04:02:06.631Z,8.20
2019-01-04T04:05:09.931Z,7.80
2019-01-04T04:08:13.029Z,8.13
2019-01-04T04:11:16.219Z,10.17
2019-01-04T04:14:19.415Z,8.60
2019-01-04T04:17:22.509Z,9.57
2019-01-04T04:20:25.703Z,8.47
2019-01-04T04:23:28.903Z,8.77
2019-01-04T04:26:31.991Z,9.70
2019-01-04T04:29:35.089Z,9.67
2019-01-04T04:32:38.174Z,9.83
2019-01-04T04:35:42.537Z,10.97
2019-01-04T04:38:46.819Z,11.03
2019-01-04T04:41:49.915Z,11.47
2019-01-04T04:44:53.003Z,10.37
2019-01-04T04:47:56.167Z,11.83
2019-01-04T04:50:59.302Z,11.60
2019-01-04T04:54:02.417Z,11.23
2019-01-04T04:57:05.475Z,12.50
2019-01-04T05:00:08.811Z,12.67
2019-01-04T05:03:11.971Z,13.63
2019-01-04T05:06:15.103Z,12.23
2019-01-04T05:09:18.158Z,11.87
2019-01-04T05:12:21.356Z,15.57
2019-01-04T05:15:24.489Z,13.77
2019-01-04T05:18:27.531Z,14.30
2019-01-04T05:21:30.777Z,14.33
2019-01-04T05:24:34.033Z,14.43
2019-01-04T05:27:37.054Z,15.37
2019-01-04T05:30:40.118Z,15.43
2019-01-04T05:33:43.234Z,15.63
2019-01-04T05:36:46.303Z,13.23
2019-01-04T05:39:49.539Z,15.97
2019-01-04T05:42:52.587Z,14.63
2019-01-04T05:45:55.730Z,14.43
2019-01-04T05:48:58.875Z,14.37
2019-01-04T05:52:02.001Z,14.70
2019-01-04T05:55:05.315Z,15.50
2019-01-04T05:58:08.696Z,16.13
2019-01-04T06:01:11.856Z,14.87
2019-01-04T06:04:15.059Z,13.67
2019-01-04T06:07:18.187Z,11.47
2019-01-04T06:10:21.346Z,14.57
2019-01-04T06:13:24.672Z,12.40
2019-01-04T06:16:27.830Z,14.17
2019-01-04T06:19:32.103Z,14.50
2019-01-04T06:22:35.258Z,15.40
2019-01-04T06:25:38.490Z,14.03
2019-01-04T06:28:41.531Z,15.43
2019-01-04T06:31:44.665Z,13.07
2019-01-04T06:34:47.823Z,12.87
2019-01-04T06:37:50.958Z,12.03
2019-01-04T06:40:54.011Z,10.67
2019-01-04T06:43:57.207Z,15.90
2019-01-04T06:47:19.336Z,16.53
2019-01-04T06:50:22.643Z,16.13
2019-01-04T06:53:25.831Z,15.27
2019-01-04T06:56:28.935Z,17.10
2019-01-04T06:59:32.119Z,17.03
2019-01-04T07:02:35.223Z,15.20
2019-01-04T07:05:38.310Z,15.10
2019-01-04T07:08:41.407Z,16.20
2019-01-04T07:11:44.747Z,13.83
2019-01-04T07:14:48.102Z,15.07
2019-01-04T07:17:51.090Z,15.13
2019-01-04T07:20:54.282Z,17.27
2019-01-04T07:23:57.380Z,15.03
2019-01-04T07:27:00.478Z,15.43
2019-01-04T07:30:03.668Z,16.23
2019-01-04T07:33:06.524Z,17.60
2019-01-04T07:36:10.667Z,18.37
2019-01-04T07:39:13.895Z,17.10
2019-01-04T07:42:16.954Z,18.87
2019-01-04T07:45:20.051Z,17.10
2019-01-04T07:48:23.139Z,19.87
2019-01-04T07:51:26.275Z,19.20
2019-01-04T07:54:31.328Z,21.23
2019-01-04T07:57:36.498Z,17.87
2019-01-04T08:00:39.827Z,18.87
2019-01-04T08:03:43.035Z,15.73
2019-01-04T08:06:46.315Z,20.80
2019-01-04T08:09:49.534Z,19.83
2019-01-04T08:12:53.615Z,16.87
2019-01-04T08:15:56.835Z,14.50
2019-01-04T08:19:00.035Z,20.60
2019-01-04T08:22:03.409Z,23.03
2019-01-04T08:25:08.140Z,21.50
2019-01-04T08:28:11.340Z,20.93
2019-01-04T08:31:14.459Z,23.77
2019-01-04T08:34:17.619Z,21.70
2019-01-04T08:37:20.845Z,23.13
2019-01-04T08:40:24.035Z,25.90
2019-01-04T08:43:27.103Z,22.67
2019-01-04T08:46:31.790Z,23.77
2019-01-04T08:49:35.035Z,24.10
2019-01-04T08:52:38.262Z,23.40
2019-01-04T08:55:41.423Z,22.33
2019-01-04T08:58:44.824Z,23.33
2019-01-04T09:01:47.915Z,20.20
2019-01-04T09:04:53.149Z,20.10
2019-01-04T09:07:56.399Z,22.20
2019-01-04T09:10:59.541Z,18.57
2019-01-04T09:14:02.987Z,20.60
2019-01-04T09:17:06.347Z,20.87
2019-01-04T09:20:10.361Z,21.37
2019-01-04T09:23:13.455Z,19.40
2019-01-04T09:26:16.643Z,19.03
2019-01-04T09:29:19.842Z,18.23
2019-01-04T09:32:23.039Z,20.83
2019-01-04T09:35:26.199Z,18.70
2019-01-04T09:38:29.327Z,18.33
2019-01-04T09:41:44.760Z,16.37
2019-01-04T09:44:47.907Z,17.93
2019-01-04T09:47:51.028Z,18.03
2019-01-04T09:50:54.295Z,16.93
2019-01-04T09:53:57.418Z,17.43
2019-01-04T09:57:00.479Z,15.50
2019-01-04T10:00:09.727Z,15.90
2019-01-04T10:03:13.820Z,14.83
2019-01-04T10:06:16.976Z,14.97
2019-01-04T10:09:20.368Z,14.50
2019-01-04T10:12:23.634Z,15.20
2019-01-04T10:15:27.211Z,12.30
2019-01-04T10:18:30.427Z,13.57
2019-01-04T10:21:33.723Z,15.33
2019-01-04T10:24:36.915Z,13.80
2019-01-04T10:27:40.215Z,12.37
2019-01-04T10:30:43.315Z,12.43
2019-01-04T10:33:46.405Z,12.37
2019-01-04T10:36:49.499Z,12.67
2019-01-04T10:39:52.583Z,10.70
2019-01-04T10:42:55.679Z,13.43
2019-01-04T10:45:58.915Z,11.57
2019-01-04T10:49:02.076Z,10.30
2019-01-04T10:52:05.174Z,11.50
2019-01-04T10:55:08.252Z,11.77
2019-01-04T10:58:11.833Z,11.40
2019-01-04T11:01:15.075Z,11.37
2019-01-04T11:04:18.143Z,11.07
2019-01-04T11:07:21.339Z,12.07
2019-01-04T11:10:24.537Z,11.00
2019-01-04T11:13:27.731Z,10.77
2019-01-04T11:16:30.925Z,10.83
2019-01-04T11:19:34.564Z,11.00
2019-01-04T11:23:37.630Z,8.23
2019-01-04T11:26:56.083Z,8.80
2019-01-04T11:30:50.607Z,9.23
2019-01-04T11:34:12.443Z,11.27
2019-01-04T11:37:32.401Z,9.43
2019-01-04T11:41:03.035Z,9.43
2019-01-04T11:44:48.566Z,10.37
2019-01-04T11:48:19.919Z,11.00
2019-01-04T11:51:44.923Z,9.83
2019-01-04T11:54:48.015Z,9.67
2019-01-04T11:57:51.271Z,11.23
2019-01-04T12:00:54.499Z,10.13
2019-01-04T12:03:58.795Z,7.87
2019-01-04T12:07:02.022Z,8.53
2019-01-04T12:10:05.707Z,8.20
2019-01-04T12:13:09.007Z,7.77
2019-01-04T12:16:12.287Z,8.93
2019-01-04T12:19:15.592Z,7.33
2019-01-04T12:22:18.718Z,8.07
2019-01-04T12:25:21.779Z,8.67
2019-01-04T12:28:25.523Z,7.23
2019-01-04T12:31:28.607Z,9.27
2019-01-04T12:34:32.129Z,8.30
2019-01-04T12:37:35.406Z,6.40
2019-01-04T12:40:38.538Z,6.83
2019-01-04T12:43:47.716Z,7.13
2019-01-04T12:46:46.591Z,7.47
2019-01-04T12:49:49.691Z,8.00
2019-01-04T12:52:52.926Z,7.87
2019-01-04T12:59:09.527Z,7.33
2019-01-04T13:02:13.636Z,6.20
2019-01-04T13:05:16.839Z,7.30
2019-01-04T13:08:20.027Z,7.67
2019-01-04T13:11:23.473Z,6.90
2019-01-04T13:14:26.568Z,8.17
2019-01-04T13:17:29.715Z,7.63
2019-01-04T13:20:32.799Z,6.60
2019-01-04T13:23:36.007Z,7.00
2019-01-04T13:26:39.367Z,7.00
2019-01-04T13:29:42.626Z,7.00
2019-01-04T13:32:45.795Z,8.83
2019-01-04T13:35:48.879Z,7.10
2019-01-04T13:38:51.984Z,7.10
2019-01-04T13:41:55.171Z,7.63
2019-01-04T13:44:58.490Z,7.00
2019-01-04T13:48:01.884Z,6.07
2019-01-04T13:51:05.067Z,8.13
2019-01-04T13:54:08.359Z,8.73
2019-01-04T13:57:11.456Z,8.60
2019-01-04T14:00:14.539Z,7.67
2019-01-04T14:03:17.647Z,8.47
2019-01-04T14:06:20.941Z,6.77
2019-01-04T14:09:24.043Z,8.27
2019-01-04T14:12:27.418Z,8.53
2019-01-04T14:15:30.523Z,7.63
2019-01-04T14:18:33.616Z,7.33
2019-01-04T14:21:36.706Z,7.83
2019-01-04T14:24:41.536Z,8.17
2019-01-04T14:27:45.194Z,7.80
2019-01-04T14:30:48.774Z,7.40
2019-01-04T14:33:52.774Z,6.67
2019-01-04T14:36:56.296Z,6.60
2019-01-04T14:39:59.919Z,7.03
2019-01-04T14:43:03.623Z,6.77
2019-01-04T14:46:07.188Z,6.87
2019-01-04T14:49:10.710Z,7.10
2019-01-04T14:52:13.851Z,6.83
2019-01-04T14:55:16.975Z,5.77
2019-01-04T14:58:20.101Z,7.53
2019-01-04T15:01:23.214Z,7.73
2019-01-04T15:04:26.591Z,7.57
2019-01-04T15:07:31.562Z,7.33
2019-01-04T15:10:34.831Z,6.33
2019-01-04T15:13:37.984Z,6.40
2019-01-04T15:16:41.361Z,6.03
2019-01-04T15:19:45.158Z,6.63
2019-01-04T15:22:48.327Z,6.33
2019-01-04T15:25:51.487Z,5.90
2019-01-04T15:28:54.822Z,5.83
2019-01-04T15:31:58.079Z,4.97
2019-01-04T15:35:02.406Z,5.03
2019-01-04T15:38:05.603Z,5.27
2019-01-04T15:41:08.927Z,6.03
2019-01-04T15:44:12.195Z,4.83
2019-01-04T15:47:15.291Z,4.90
2019-01-04T15:50:18.483Z,5.13
2019-01-04T15:53:21.880Z,6.27
2019-01-04T15:56:25.075Z,5.60
2019-01-04T15:59:28.276Z,5.67
2019-01-04T16:02:31.470Z,5.77
2019-01-04T16:05:34.764Z,5.63
2019-01-04T16:08:37.855Z,4.63
2019-01-04T16:11:40.949Z,5.40
2019-01-04T16:14:44.560Z,5.47
2019-01-04T16:17:47.749Z,4.93
2019-01-04T16:20:50.835Z,5.60
2019-01-04T16:23:53.939Z,5.30
2019-01-04T16:26:57.019Z,5.00
2019-01-04T16:30:00.585Z,5.40
2019-01-04T16:33:11.411Z,6.20
2019-01-04T16:36:14.494Z,5.50
2019-01-04T16:39:17.687Z,5.90
2019-01-04T16:42:20.883Z,5.50
2019-01-04T16:45:23.975Z,6.30
2019-01-04T16:48:27.170Z,6.27
2019-01-04T16:51:30.263Z,5.77
2019-01-04T16:54:33.391Z,5.97
2019-01-04T16:57:36.998Z,5.63
2019-01-04T17:00:40.063Z,6.07
2019-01-04T17:03:43.151Z,6.23
2019-01-04T17:06:46.242Z,6.23
2019-01-04T17:09:49.332Z,5.90
2019-01-04T17:12:52.439Z,6.53
2019-01-04T17:15:55.516Z,6.33
2019-01-04T17:18:58.733Z,6.07
2019-01-04T17:22:01.804Z,7.13
2019-01-04T17:25:06.026Z,6.47
2019-01-04T17:28:10.151Z,6.10
2019-01-04T17:31:13.437Z,6.50
2019-01-04T17:34:16.803Z,6.40
2019-01-04T17:37:21.163Z,6.20
2019-01-04T17:40:24.352Z,5.97
2019-01-04T17:43:27.453Z,6.17
2019-01-04T17:46:30.639Z,6.40
2019-01-04T17:49:34.048Z,6.00
2019-01-04T17:52:38.284Z,6.27
2019-01-04T17:55:41.596Z,6.37
2019-01-04T17:58:44.759Z,5.73
2019-01-04T18:01:47.979Z,5.53
2019-01-04T18:04:51.040Z,5.77
2019-01-04T18:07:54.182Z,5.97
2019-01-04T18:10:57.234Z,5.93
2019-01-04T18:14:00.358Z,6.00
2019-01-04T18:17:03.518Z,5.93
2019-01-04T18:20:10.906Z,5.17
2019-01-04T18:23:13.603Z,6.17
2019-01-04T18:26:17.623Z,5.40
2019-01-04T18:29:21.935Z,5.93
2019-01-04T18:32:25.095Z,6.50
2019-01-04T18:35:28.220Z,6.17
2019-01-04T18:38:31.666Z,6.70
2019-01-04T18:41:34.916Z,5.50
2019-01-04T18:44:39.073Z,6.03
2019-01-04T18:47:42.443Z,6.53
2019-01-04T18:50:46.483Z,6.07
2019-01-04T18:53:49.539Z,5.20
2019-01-04T18:56:52.773Z,5.33
2019-01-04T18:59:55.928Z,5.47
2019-01-04T19:02:59.062Z,5.73
2019-01-04T19:06:02.228Z,4.97
2019-01-04T19:09:07.315Z,4.90
2019-01-04T19:12:10.811Z,4.30
2019-01-04T19:15:14.316Z,4.90
2019-01-04T19:18:17.452Z,4.90
2019-01-04T19:21:20.582Z,4.67
2019-01-04T19:24:23.642Z,5.20
2019-01-04T19:27:26.773Z,5.27
2019-01-04T19:30:30.033Z,5.40
2019-01-04T19:33:33.235Z,5.23
2019-01-04T19:36:37.615Z,5.07
2019-01-04T19:39:40.948Z,5.60
2019-01-04T19:42:45.201Z,6.73
2019-01-04T19:45:48.364Z,5.80
2019-01-04T19:48:51.496Z,6.67
2019-01-04T19:51:54.652Z,6.70
2019-01-04T19:54:57.747Z,6.20
2019-01-04T19:58:02.207Z,6.57
2019-01-04T20:01:05.460Z,5.73
2019-01-04T20:04:08.618Z,6.23
2019-01-04T20:08:37.007Z,5.70
2019-01-04T20:13:03.175Z,5.67
2019-01-04T20:16:43.815Z,4.40
2019-01-04T20:20:09.159Z,5.40
2019-01-04T20:23:30.443Z,5.37
2019-01-04T20:26:52.784Z,6.00
2019-01-04T20:30:14.513Z,5.53
2019-01-04T20:33:39.915Z,6.30
2019-01-04T20:37:15.674Z,6.17
2019-01-04T20:40:37.000Z,5.93
2019-01-04T20:43:59.519Z,7.33
2019-01-04T20:47:40.532Z,7.07
2019-01-04T20:51:03.049Z,6.27
2019-01-04T20:54:28.458Z,7.33
2019-01-04T20:57:53.059Z,6.37
2019-01-04T21:01:23.524Z,7.57
2019-01-04T21:04:49.507Z,7.87
2019-01-04T21:08:07.671Z,7.30
2019-01-04T21:11:24.487Z,7.13
2019-01-04T21:14:45.851Z,8.20
2019-01-04T21:18:04.872Z,7.70
2019-01-04T21:21:30.395Z,7.17
2019-01-04T21:25:10.235Z,8.03
2019-01-04T21:28:18.714Z,7.90
2019-01-04T21:31:44.132Z,7.47
2019-01-04T21:35:09.268Z,8.17
2019-01-04T21:38:31.991Z,7.90
2019-01-04T21:41:57.194Z,8.77
2019-01-04T21:45:18.825Z,8.40
2019-01-04T21:48:44.231Z,9.33
2019-01-04T21:52:06.791Z,8.33
2019-01-04T21:55:28.299Z,8.57
2019-01-04T21:58:49.647Z,8.83
2019-01-04T22:02:18.102Z,8.10
2019-01-04T22:05:39.697Z,7.57
2019-01-04T22:09:05.058Z,8.33
2019-01-04T22:12:27.770Z,8.70
2019-01-04T22:15:52.958Z,7.73
2019-01-04T22:19:17.354Z,8.73
2019-01-04T22:22:35.011Z,8.53
2019-01-04T22:26:05.016Z,7.80
2019-01-04T22:29:36.415Z,8.97
2019-01-04T22:33:00.675Z,8.97
2019-01-04T22:36:32.064Z,7.70
2019-01-04T22:39:53.208Z,7.73
2019-01-04T22:43:15.785Z,8.53
2019-01-04T22:46:37.279Z,8.50
2019-01-04T22:50:00.163Z,9.17
2019-01-04T22:53:22.761Z,8.33
2019-01-04T22:57:00.419Z,9.33
2019-01-04T23:00:23.013Z,8.80
2019-01-04T23:03:56.467Z,9.47
2019-01-04T23:07:27.878Z,9.10
2019-01-04T23:10:50.487Z,9.50
2019-01-04T23:14:11.539Z,10.13
2019-01-04T23:17:41.835Z,9.97
2019-01-04T23:21:13.087Z,10.07
2019-01-04T23:24:41.646Z,9.10
2019-01-04T23:28:13.011Z,9.80
2019-01-04T23:31:44.343Z,10.17
2019-01-04T23:35:05.430Z,10.10
2019-01-04T23:38:25.007Z,10.20
2019-01-04T23:41:46.482Z,9.40
2019-01-04T23:45:06.419Z,9.63
2019-01-04T23:48:29.155Z,8.70
2019-01-04T23:52:01.022Z,8.67
2019-01-04T23:55:23.583Z,8.03
2019-01-04T23:59:00.887Z,8.53
